createdAt,value
2018-07-21T00:00:57.045Z,8.43
2018-07-21T00:03:28.863Z,8.27
2018-07-21T00:06:00.559Z,8.10
2018-07-21T00:08:32.312Z,7.63
2018-07-21T00:11:04.034Z,8.17
2018-07-21T00:13:35.712Z,7.57
2018-07-21T00:16:07.523Z,7.60
2018-07-21T00:18:39.192Z,6.73
2018-07-21T00:21:11.000Z,7.00
2018-07-21T00:23:42.739Z,6.97
2018-07-21T00:26:14.461Z,6.97
2018-07-21T00:28:46.239Z,6.30
2018-07-21T00:31:18.199Z,5.90
2018-07-21T00:33:50.032Z,6.60
2018-07-21T00:36:21.791Z,7.70
2018-07-21T00:38:53.539Z,8.37
2018-07-21T00:41:25.351Z,8.80
2018-07-21T00:43:57.079Z,8.80
2018-07-21T00:46:28.511Z,7.77
2018-07-21T00:49:00.079Z,7.70
2018-07-21T00:51:31.842Z,6.93
2018-07-21T00:54:03.631Z,6.90
2018-07-21T00:56:36.043Z,7.83
2018-07-21T00:59:07.823Z,7.13
2018-07-21T01:01:39.920Z,6.93
2018-07-21T01:04:11.609Z,6.53
2018-07-21T01:06:42.999Z,6.83
2018-07-21T01:09:14.619Z,6.63
2018-07-21T01:11:46.477Z,7.67
2018-07-21T01:14:18.623Z,7.00
2018-07-21T01:16:50.399Z,7.87
2018-07-21T01:19:22.161Z,7.00
2018-07-21T01:21:53.879Z,7.10
2018-07-21T01:24:25.811Z,7.07
2018-07-21T01:26:57.896Z,7.10
2018-07-21T01:29:29.664Z,6.40
2018-07-21T01:32:01.706Z,7.20
2018-07-21T01:34:33.540Z,6.67
2018-07-21T01:37:05.321Z,6.13
2018-07-21T01:39:36.995Z,6.40
2018-07-21T01:42:08.654Z,6.20
2018-07-21T01:44:40.350Z,5.93
2018-07-21T01:47:12.083Z,6.50
2018-07-21T01:49:43.819Z,6.10
2018-07-21T01:52:15.617Z,6.27
2018-07-21T01:54:47.369Z,6.40
2018-07-21T01:57:19.118Z,7.03
2018-07-21T01:59:50.880Z,6.67
2018-07-21T02:02:22.678Z,6.90
2018-07-21T02:04:54.453Z,7.23
2018-07-21T02:07:26.164Z,6.50
2018-07-21T02:09:57.920Z,6.90
2018-07-21T02:12:29.681Z,6.53
2018-07-21T02:15:01.543Z,7.10
2018-07-21T02:17:32.794Z,7.30
2018-07-21T02:20:04.455Z,6.90
2018-07-21T02:22:36.295Z,7.30
2018-07-21T02:25:08.751Z,8.03
2018-07-21T02:27:40.515Z,7.30
2018-07-21T02:30:12.323Z,8.10
2018-07-21T02:32:44.019Z,8.23
2018-07-21T02:35:15.791Z,7.83
2018-07-21T02:37:47.620Z,8.00
2018-07-21T02:40:18.951Z,8.50
2018-07-21T02:42:50.519Z,8.37
2018-07-21T02:45:22.379Z,7.93
2018-07-21T02:47:54.079Z,8.40
2018-07-21T02:50:25.859Z,8.40
2018-07-21T02:52:57.623Z,8.23
2018-07-21T02:55:30.178Z,9.17
2018-07-21T02:58:01.981Z,9.00
2018-07-21T03:00:33.821Z,9.57
2018-07-21T03:03:05.579Z,8.80
2018-07-21T03:05:36.920Z,8.87
2018-07-21T03:08:08.031Z,8.63
2018-07-21T03:10:39.139Z,8.60
2018-07-21T03:13:10.219Z,8.30
2018-07-21T03:15:41.771Z,8.43
2018-07-21T03:18:13.483Z,8.20
2018-07-21T03:20:45.277Z,7.70
2018-07-21T03:23:16.960Z,7.97
2018-07-21T03:25:48.463Z,7.97
2018-07-21T03:28:20.172Z,7.20
2018-07-21T03:30:51.792Z,7.37
2018-07-21T03:33:23.399Z,7.30
2018-07-21T03:35:54.991Z,7.70
2018-07-21T03:38:26.559Z,8.07
2018-07-21T03:40:58.182Z,8.00
2018-07-21T03:43:29.791Z,8.53
2018-07-21T03:46:01.411Z,7.87
2018-07-21T03:48:32.963Z,8.47
2018-07-21T03:51:04.619Z,8.83
2018-07-21T03:53:36.187Z,9.70
2018-07-21T03:56:08.042Z,8.30
2018-07-21T03:58:39.639Z,7.70
2018-07-21T04:01:11.241Z,9.27
2018-07-21T04:03:42.731Z,9.00
2018-07-21T04:06:14.371Z,9.33
2018-07-21T04:08:45.971Z,9.70
2018-07-21T04:11:17.531Z,9.00
2018-07-21T04:13:49.171Z,8.67
2018-07-21T04:16:20.403Z,8.33
2018-07-21T04:18:51.779Z,7.33
2018-07-21T04:21:23.396Z,6.70
2018-07-21T04:23:54.999Z,6.80
2018-07-21T04:26:26.643Z,6.63
2018-07-21T04:28:58.524Z,8.07
2018-07-21T04:31:30.200Z,8.13
2018-07-21T04:34:01.809Z,9.00
2018-07-21T04:36:33.421Z,7.77
2018-07-21T04:39:07.160Z,6.67
2018-07-21T04:41:38.799Z,7.17
2018-07-21T04:44:09.994Z,7.23
2018-07-21T04:46:41.378Z,8.30
2018-07-21T04:49:12.931Z,7.40
2018-07-21T04:51:44.800Z,7.07
2018-07-21T04:54:16.540Z,7.83
2018-07-21T04:56:48.443Z,7.67
2018-07-21T04:59:20.259Z,7.80
2018-07-21T05:01:52.039Z,7.10
2018-07-21T05:04:24.026Z,7.53
2018-07-21T05:06:56.091Z,7.83
2018-07-21T05:09:27.779Z,7.70
2018-07-21T05:11:59.559Z,7.30
2018-07-21T05:14:31.643Z,6.40
2018-07-21T05:17:03.383Z,7.13
2018-07-21T05:19:35.176Z,8.17
2018-07-21T05:22:07.299Z,8.07
2018-07-21T05:24:39.084Z,9.17
2018-07-21T05:27:10.840Z,8.60
2018-07-21T05:29:42.879Z,8.27
2018-07-21T05:32:14.611Z,8.03
2018-07-21T05:34:46.359Z,8.70
2018-07-21T05:37:18.159Z,9.50
2018-07-21T05:39:49.896Z,10.10
2018-07-21T05:42:21.703Z,10.10
2018-07-21T05:44:53.353Z,10.43
2018-07-21T05:47:25.115Z,10.97
2018-07-21T05:49:56.851Z,9.13
2018-07-21T05:52:28.649Z,8.80
2018-07-21T05:55:00.400Z,9.80
2018-07-21T05:57:32.183Z,10.87
2018-07-21T06:00:03.934Z,9.37
2018-07-21T06:02:35.797Z,9.10
2018-07-21T06:05:08.126Z,8.50
2018-07-21T06:07:39.922Z,9.20
2018-07-21T06:10:11.699Z,9.23
2018-07-21T06:12:43.585Z,8.70
2018-07-21T06:15:15.623Z,8.87
2018-07-21T06:17:47.299Z,8.83
2018-07-21T06:20:19.062Z,9.67
2018-07-21T06:22:50.899Z,9.50
2018-07-21T06:25:22.606Z,10.00
2018-07-21T06:27:54.479Z,9.40
2018-07-21T06:30:27.035Z,9.67
2018-07-21T06:32:59.092Z,9.67
2018-07-21T06:35:30.819Z,9.40
2018-07-21T06:38:02.645Z,10.00
2018-07-21T06:40:34.406Z,9.53
2018-07-21T06:43:06.702Z,10.07
2018-07-21T06:45:38.411Z,9.90
2018-07-21T06:48:10.115Z,9.50
2018-07-21T06:50:41.714Z,9.60
2018-07-21T06:53:13.399Z,9.33
2018-07-21T06:55:45.032Z,9.17
2018-07-21T06:58:16.798Z,9.20
2018-07-21T07:00:48.918Z,9.47
2018-07-21T07:03:21.035Z,8.90
2018-07-21T07:05:53.303Z,9.00
2018-07-21T07:08:25.037Z,9.60
2018-07-21T07:10:56.743Z,8.93
2018-07-21T07:13:28.519Z,9.23
2018-07-21T07:16:00.213Z,9.33
2018-07-21T07:18:32.224Z,9.27
2018-07-21T07:21:03.939Z,9.53
2018-07-21T07:23:35.180Z,10.03
2018-07-21T07:26:06.818Z,10.37
2018-07-21T07:28:38.567Z,11.23
2018-07-21T07:31:10.260Z,10.93
2018-07-21T07:33:41.964Z,9.43
2018-07-21T07:36:13.687Z,9.60
2018-07-21T07:38:45.574Z,9.60
2018-07-21T07:41:17.398Z,10.73
2018-07-21T07:43:49.134Z,12.27
2018-07-21T07:46:20.879Z,11.00
2018-07-21T07:48:52.176Z,10.47
2018-07-21T07:51:23.698Z,9.63
2018-07-21T07:53:55.066Z,9.70
2018-07-21T07:56:26.642Z,9.43
2018-07-21T07:58:58.642Z,8.57
2018-07-21T08:01:34.670Z,8.63
2018-07-21T08:04:08.394Z,8.43
2018-07-21T08:06:45.483Z,8.13
2018-07-21T08:09:19.667Z,6.97
2018-07-21T08:11:51.390Z,7.50
2018-07-21T08:14:24.865Z,9.03
2018-07-21T08:16:58.523Z,8.80
2018-07-21T08:19:30.534Z,9.43
2018-07-21T08:22:02.222Z,10.47
2018-07-21T08:24:34.077Z,9.70
2018-07-21T08:27:06.312Z,9.60
2018-07-21T08:29:38.299Z,9.67
2018-07-21T08:32:10.104Z,8.50
2018-07-21T08:34:42.027Z,8.60
2018-07-21T08:37:13.680Z,7.50
2018-07-21T08:39:45.864Z,6.60
2018-07-21T08:42:17.610Z,6.40
2018-07-21T08:44:49.323Z,5.57
2018-07-21T08:47:21.109Z,6.40
2018-07-21T08:49:52.444Z,5.90
2018-07-21T08:52:24.057Z,5.90
2018-07-21T08:54:55.838Z,5.50
2018-07-21T08:57:27.634Z,5.63
2018-07-21T08:59:59.358Z,5.73
2018-07-21T09:02:31.083Z,5.23
2018-07-21T09:05:03.258Z,4.83
2018-07-21T09:07:34.806Z,4.60
2018-07-21T09:10:06.828Z,4.67
2018-07-21T09:12:38.591Z,4.70
2018-07-21T09:15:10.799Z,4.53
2018-07-21T09:17:42.519Z,4.17
2018-07-21T09:20:14.267Z,3.97
2018-07-21T09:22:46.020Z,4.50
2018-07-21T09:25:17.984Z,4.20
2018-07-21T09:27:49.701Z,4.67
2018-07-21T09:30:21.439Z,4.87
2018-07-21T09:32:53.127Z,5.30
2018-07-21T09:35:24.840Z,5.83
2018-07-21T09:37:56.902Z,4.90
2018-07-21T09:40:28.695Z,4.83
2018-07-21T09:43:00.419Z,5.57
2018-07-21T09:45:32.168Z,5.30
2018-07-21T09:48:04.143Z,5.67
2018-07-21T09:50:36.044Z,4.83
2018-07-21T09:53:07.839Z,4.20
2018-07-21T09:55:39.695Z,4.83
2018-07-21T09:58:11.727Z,5.20
2018-07-21T10:00:48.673Z,4.70
2018-07-21T10:03:20.503Z,4.97
2018-07-21T10:05:52.235Z,5.03
2018-07-21T10:08:24.072Z,4.33
2018-07-21T10:10:55.824Z,4.60
2018-07-21T10:13:27.703Z,4.60
2018-07-21T10:15:59.967Z,4.40
2018-07-21T10:18:31.704Z,4.20
2018-07-21T10:21:03.442Z,4.03
2018-07-21T10:23:35.471Z,3.30
2018-07-21T10:26:12.523Z,3.33
2018-07-21T10:28:49.421Z,3.87
2018-07-21T10:31:21.176Z,3.17
2018-07-21T10:33:52.815Z,3.60
2018-07-21T10:36:24.575Z,3.57
2018-07-21T10:38:56.483Z,3.47
2018-07-21T10:41:28.314Z,3.50
2018-07-21T10:44:00.040Z,3.33
2018-07-21T10:46:31.843Z,18.53
2018-07-21T10:49:03.623Z,63.80
2018-07-21T10:51:35.559Z,23.40
2018-07-21T10:54:07.851Z,16.97
2018-07-21T10:56:39.611Z,6.50
2018-07-21T10:59:11.484Z,4.33
2018-07-21T11:01:43.264Z,3.60
2018-07-21T11:04:15.191Z,3.80
2018-07-21T11:06:47.107Z,5.50
2018-07-21T11:09:18.874Z,3.00
2018-07-21T11:11:50.819Z,3.30
2018-07-21T11:14:23.015Z,3.43
2018-07-21T11:16:54.782Z,3.00
2018-07-21T11:19:26.558Z,2.80
2018-07-21T11:21:58.425Z,2.73
2018-07-21T11:24:30.347Z,3.20
2018-07-21T11:27:02.544Z,3.30
2018-07-21T11:29:34.124Z,2.80
2018-07-21T11:32:05.821Z,9.63
2018-07-21T11:34:37.563Z,12.30
2018-07-21T11:37:09.222Z,7.63
2018-07-21T11:39:40.866Z,2.70
2018-07-21T11:42:12.583Z,5.03
2018-07-21T11:44:44.184Z,4.90
2018-07-21T11:47:15.895Z,5.27
2018-07-21T11:49:48.396Z,4.27
2018-07-21T11:52:20.084Z,3.20
2018-07-21T11:54:52.516Z,3.70
2018-07-21T11:57:24.094Z,3.50
2018-07-21T11:59:55.723Z,4.80
2018-07-21T12:02:27.604Z,5.30
2018-07-21T12:04:59.592Z,4.37
2018-07-21T12:07:31.222Z,5.70
2018-07-21T12:10:02.855Z,6.60
2018-07-21T12:12:34.632Z,6.17
2018-07-21T12:15:06.377Z,6.13
2018-07-21T12:17:38.118Z,7.27
2018-07-21T12:20:09.783Z,7.37
2018-07-21T12:22:41.566Z,6.50
2018-07-21T12:25:13.202Z,7.03
2018-07-21T12:27:44.922Z,6.47
2018-07-21T12:30:16.731Z,6.57
2018-07-21T12:32:48.571Z,6.33
2018-07-21T12:35:20.283Z,5.87
2018-07-21T12:37:52.403Z,6.47
2018-07-21T12:40:24.183Z,5.20
2018-07-21T12:42:55.954Z,6.40
2018-07-21T12:45:27.633Z,5.80
2018-07-21T12:47:59.443Z,5.63
2018-07-21T12:50:30.711Z,6.77
2018-07-21T12:53:02.295Z,6.90
2018-07-21T12:55:33.992Z,6.90
2018-07-21T12:58:05.895Z,7.37
2018-07-21T13:00:37.646Z,5.90
2018-07-21T13:03:09.692Z,5.87
2018-07-21T13:05:41.425Z,5.97
2018-07-21T13:08:13.335Z,6.17
2018-07-21T13:10:45.055Z,6.50
2018-07-21T13:13:16.807Z,8.07
2018-07-21T13:15:48.404Z,7.80
2018-07-21T13:18:20.046Z,7.40
2018-07-21T13:20:51.704Z,8.27
2018-07-21T13:23:23.367Z,7.30
2018-07-21T13:25:54.979Z,8.37
2018-07-21T13:28:26.624Z,8.43
2018-07-21T13:30:58.150Z,7.40
2018-07-21T13:33:29.745Z,7.20
2018-07-21T13:36:01.434Z,7.23
2018-07-21T13:38:33.103Z,6.73
2018-07-21T13:41:04.735Z,5.73
2018-07-21T13:43:36.300Z,6.17
2018-07-21T13:46:07.935Z,5.73
2018-07-21T13:48:39.560Z,6.20
2018-07-21T13:51:11.107Z,5.93
2018-07-21T13:53:42.775Z,5.50
2018-07-21T13:56:14.479Z,5.10
2018-07-21T13:58:46.070Z,4.83
2018-07-21T14:01:17.731Z,4.40
2018-07-21T14:03:49.799Z,4.60
2018-07-21T14:06:21.446Z,4.23
2018-07-21T14:08:52.995Z,4.50
2018-07-21T14:11:24.667Z,4.03
2018-07-21T14:13:56.492Z,4.37
2018-07-21T14:16:28.054Z,3.83
2018-07-21T14:18:59.683Z,3.87
2018-07-21T14:21:31.335Z,3.90
2018-07-21T14:24:03.116Z,3.80
2018-07-21T14:26:34.763Z,4.07
2018-07-21T14:29:06.595Z,3.80
2018-07-21T14:31:37.743Z,3.50
2018-07-21T14:34:09.151Z,4.10
2018-07-21T14:36:40.802Z,3.40
2018-07-21T14:39:13.330Z,3.90
2018-07-21T14:41:45.100Z,3.43
2018-07-21T14:44:16.729Z,3.40
2018-07-21T14:46:48.277Z,3.70
2018-07-21T14:49:19.879Z,3.43
2018-07-21T14:51:51.735Z,3.60
2018-07-21T14:54:23.375Z,3.20
2018-07-21T14:56:55.028Z,3.10
2018-07-21T14:59:26.770Z,3.40
2018-07-21T15:01:58.361Z,3.60
2018-07-21T15:04:30.054Z,3.13
2018-07-21T15:07:01.723Z,3.17
2018-07-21T15:09:33.406Z,3.23
2018-07-21T15:12:05.122Z,2.77
2018-07-21T15:14:36.843Z,3.30
2018-07-21T15:17:08.494Z,3.17
2018-07-21T15:19:40.137Z,3.53
2018-07-21T15:22:11.746Z,3.20
2018-07-21T15:24:44.396Z,3.20
2018-07-21T15:27:16.063Z,3.00
2018-07-21T15:29:48.215Z,3.10
2018-07-21T15:32:19.804Z,3.10
2018-07-21T15:34:51.843Z,2.93
2018-07-21T15:37:23.503Z,3.07
2018-07-21T15:39:55.163Z,3.87
2018-07-21T15:42:27.102Z,5.23
2018-07-21T15:44:59.264Z,6.00
2018-07-21T15:47:30.812Z,6.93
2018-07-21T15:50:02.424Z,9.73
2018-07-21T15:52:33.955Z,9.47
2018-07-21T15:55:05.711Z,9.47
2018-07-21T15:57:37.405Z,8.43
2018-07-21T16:00:09.875Z,8.70
2018-07-21T16:02:41.647Z,9.03
2018-07-21T16:05:13.396Z,9.33
2018-07-21T16:07:45.175Z,8.83
2018-07-21T16:10:17.043Z,8.87
2018-07-21T16:12:48.756Z,9.83
2018-07-21T16:15:20.598Z,10.20
2018-07-21T16:17:52.375Z,10.27
2018-07-21T16:20:24.219Z,9.13
2018-07-21T16:22:55.969Z,8.83
2018-07-21T16:25:27.837Z,9.10
2018-07-21T16:28:00.313Z,9.47
2018-07-21T16:30:32.088Z,8.13
2018-07-21T16:33:03.698Z,9.53
2018-07-21T16:35:35.524Z,8.33
2018-07-21T16:38:07.363Z,9.00
2018-07-21T16:40:39.111Z,9.53
2018-07-21T16:43:10.784Z,10.17
2018-07-21T16:45:42.578Z,10.00
2018-07-21T16:48:14.323Z,11.00
2018-07-21T16:50:46.463Z,11.93
2018-07-21T16:53:19.300Z,11.10
2018-07-21T16:55:51.047Z,11.87
2018-07-21T16:58:22.897Z,11.23
2018-07-21T17:00:55.280Z,11.63
2018-07-21T17:03:26.579Z,11.73
2018-07-21T17:05:58.173Z,10.73
2018-07-21T17:08:29.912Z,12.60
2018-07-21T17:11:01.712Z,10.80
2018-07-21T17:13:33.567Z,12.40
2018-07-21T17:16:05.690Z,13.43
2018-07-21T17:18:39.257Z,12.40
2018-07-21T17:21:11.103Z,12.73
2018-07-21T17:23:42.928Z,13.10
2018-07-21T17:26:15.512Z,12.50
2018-07-21T17:28:46.878Z,12.70
2018-07-21T17:31:18.572Z,10.73
2018-07-21T17:33:50.291Z,11.70
2018-07-21T17:36:21.659Z,12.90
2018-07-21T17:38:53.219Z,12.70
2018-07-21T17:41:24.979Z,12.90
2018-07-21T17:43:56.567Z,12.20
2018-07-21T17:46:28.239Z,12.30
2018-07-21T17:49:00.428Z,13.43
2018-07-21T17:51:32.083Z,13.10
2018-07-21T17:54:03.864Z,12.13
2018-07-21T17:56:35.560Z,13.87
2018-07-21T17:59:07.261Z,12.90
2018-07-21T18:01:39.171Z,12.23
2018-07-21T18:04:11.247Z,12.07
2018-07-21T18:06:42.863Z,11.60
2018-07-21T18:09:14.000Z,10.40
2018-07-21T18:11:45.711Z,10.83
2018-07-21T18:14:17.353Z,12.20
2018-07-21T18:16:49.093Z,13.07
2018-07-21T18:19:20.629Z,11.93
2018-07-21T18:21:52.241Z,13.17
2018-07-21T18:24:23.959Z,14.33
2018-07-21T18:26:55.559Z,12.83
2018-07-21T18:29:27.175Z,13.57
2018-07-21T18:31:58.987Z,12.50
2018-07-21T18:34:30.812Z,11.13
2018-07-21T18:37:02.474Z,11.57
2018-07-21T18:39:34.199Z,12.40
2018-07-21T18:42:06.103Z,13.53
2018-07-21T18:44:38.240Z,13.87
2018-07-21T18:47:10.059Z,12.47
2018-07-21T18:49:41.780Z,10.93
2018-07-21T18:52:13.994Z,8.23
2018-07-21T18:54:45.740Z,6.53
2018-07-21T18:57:17.574Z,5.70
2018-07-21T18:59:49.539Z,10.27
2018-07-21T19:02:22.140Z,10.33
2018-07-21T19:04:53.912Z,11.20
2018-07-21T19:07:25.703Z,12.70
2018-07-21T19:09:57.900Z,10.53
2018-07-21T19:12:34.684Z,11.00
2018-07-21T19:15:07.028Z,10.93
2018-07-21T19:17:39.266Z,9.73
2018-07-21T19:20:16.072Z,6.77
2018-07-21T19:22:47.839Z,4.53
2018-07-21T19:25:25.177Z,4.40
2018-07-21T19:27:56.940Z,3.10
2018-07-21T19:30:28.659Z,3.20
2018-07-21T19:33:01.685Z,2.93
2018-07-21T19:35:33.311Z,3.77
2018-07-21T19:38:05.143Z,2.67
2018-07-21T19:40:36.743Z,2.17
2018-07-21T19:43:08.429Z,2.57
2018-07-21T19:45:40.182Z,3.00
2018-07-21T19:48:11.879Z,2.60
2018-07-21T19:50:43.506Z,2.40
2018-07-21T19:53:15.163Z,2.30
2018-07-21T19:55:47.375Z,2.27
2018-07-21T19:58:19.500Z,2.43
2018-07-21T20:00:51.877Z,2.60
2018-07-21T20:03:24.105Z,2.80
2018-07-21T20:05:56.058Z,2.63
2018-07-21T20:08:27.859Z,2.90
2018-07-21T20:10:59.675Z,2.50
2018-07-21T20:13:31.497Z,3.00
2018-07-21T20:16:03.198Z,3.00
2018-07-21T20:18:35.019Z,2.87
2018-07-21T20:21:06.841Z,2.33
2018-07-21T20:23:38.599Z,2.23
2018-07-21T20:26:10.422Z,2.40
2018-07-21T20:28:43.173Z,2.30
2018-07-21T20:31:14.952Z,2.80
2018-07-21T20:33:46.792Z,3.10
2018-07-21T20:36:18.824Z,2.50
2018-07-21T20:38:50.707Z,2.87
2018-07-21T20:41:22.543Z,2.83
2018-07-21T20:43:54.283Z,3.00
2018-07-21T20:46:26.187Z,2.93
2018-07-21T20:48:58.979Z,2.70
2018-07-21T20:51:30.635Z,3.10
2018-07-21T20:54:02.475Z,2.90
2018-07-21T20:56:34.267Z,2.80
2018-07-21T20:59:06.118Z,2.80
2018-07-21T21:01:37.923Z,2.90
2018-07-21T21:04:09.706Z,3.20
2018-07-21T21:06:42.279Z,3.03
2018-07-21T21:09:14.036Z,3.33
2018-07-21T21:11:45.803Z,2.90
2018-07-21T21:14:19.195Z,3.03
2018-07-21T21:16:50.943Z,3.20
2018-07-21T21:19:22.731Z,3.00
2018-07-21T21:21:54.619Z,3.03
2018-07-21T21:24:26.897Z,2.90
2018-07-21T21:26:58.674Z,3.20
2018-07-21T21:29:30.457Z,3.00
2018-07-21T21:32:02.523Z,2.80
2018-07-21T21:34:34.388Z,2.87
2018-07-21T21:37:06.383Z,3.30
2018-07-21T21:39:38.151Z,3.10
2018-07-21T21:42:09.774Z,2.70
2018-07-21T21:44:41.399Z,2.87
2018-07-21T21:47:13.031Z,2.77
2018-07-21T21:49:44.665Z,3.13
2018-07-21T21:52:16.218Z,2.70
2018-07-21T21:54:47.784Z,2.80
2018-07-21T21:57:19.579Z,2.50
2018-07-21T21:59:51.094Z,1.83
2018-07-21T22:02:22.719Z,1.87
2018-07-21T22:04:54.359Z,2.07
2018-07-21T22:07:26.012Z,2.07
2018-07-21T22:09:57.591Z,2.40
2018-07-21T22:12:29.218Z,2.30
2018-07-21T22:15:00.831Z,2.47
2018-07-21T22:17:32.412Z,2.50
2018-07-21T22:20:04.108Z,2.20
2018-07-21T22:22:35.697Z,2.07
2018-07-21T22:25:07.464Z,2.37
2018-07-21T22:27:39.082Z,1.90
2018-07-21T22:30:15.675Z,1.80
2018-07-21T22:32:47.247Z,1.70
2018-07-21T22:35:18.899Z,2.00
2018-07-21T22:37:50.555Z,1.97
2018-07-21T22:40:22.363Z,2.30
2018-07-21T22:42:53.955Z,1.90
2018-07-21T22:45:25.583Z,1.60
2018-07-21T22:47:57.163Z,2.00
2018-07-21T22:50:28.791Z,2.00
2018-07-21T22:53:00.368Z,1.90
2018-07-21T22:55:32.044Z,1.70
2018-07-21T22:58:03.643Z,2.00
2018-07-21T23:00:35.243Z,1.97
2018-07-21T23:03:06.863Z,2.03
2018-07-21T23:05:38.534Z,2.10
2018-07-21T23:08:10.127Z,2.00
2018-07-21T23:10:41.963Z,2.13
2018-07-21T23:13:13.571Z,2.23
2018-07-21T23:15:45.183Z,1.90
2018-07-21T23:18:16.835Z,2.73
2018-07-21T23:20:48.506Z,2.10
2018-07-21T23:23:20.143Z,2.30
2018-07-21T23:25:51.783Z,2.03
2018-07-21T23:28:23.392Z,2.30
2018-07-21T23:30:55.037Z,2.13
2018-07-21T23:33:27.261Z,2.20
2018-07-21T23:35:59.978Z,1.93
2018-07-21T23:38:31.566Z,1.77
2018-07-21T23:41:03.359Z,2.00
2018-07-21T23:43:35.099Z,1.90
2018-07-21T23:46:07.134Z,1.97
2018-07-21T23:48:38.339Z,2.00
2018-07-21T23:51:10.016Z,1.80
2018-07-21T23:53:41.735Z,1.80
2018-07-21T23:56:14.478Z,2.10
2018-07-21T23:58:45.756Z,1.80
